sensor_id;sensor_type;location;lat;lon;timestamp;P1;durP1;ratioP1;P2;durP2;ratioP2
61473;SDS011;53694;49.784;30.150;2024-01-15T00:00:48;13.64;;;7.35;;
61473;SDS011;53694;49.784;30.150;2024-01-15T00:01:52;14.38;;;8.44;;
61473;SDS011;53694;49.784;30.150;2024-01-15T00:02:53;16.95;;;9.13;;
61473;SDS011;53694;49.784;30.150;2024-01-15T00:03:55;18.62;;;9.26;;
61473;SDS011;53694;49.784;30.150;2024-01-15T00:04:56;18.16;;;9.68;;
61473;SDS011;53694;49.784;30.150;2024-01-15T00:05:58;18.29;;;10.03;;
61473;SDS011;53694;49.784;30.150;2024-01-15T00:06:59;19.84;;;10.55;;
61473;SDS011;53694;49.784;30.150;2024-01-15T00:08:01;21.65;;;10.84;;
61473;SDS011;53694;49.784;30.150;2024-01-15T00:09:03;17.90;;;10.17;;
61473;SDS011;53694;49.784;30.150;2024-01-15T00:10:04;17.66;;;10.09;;
61473;SDS011;53694;49.784;30.150;2024-01-15T00:11:06;17.52;;;10.15;;
61473;SDS011;53694;49.784;30.150;2024-01-15T00:12:08;22.72;;;11.24;;
61473;SDS011;53694;49.784;30.150;2024-01-15T00:13:09;18.99;;;10.87;;
61473;SDS011;53694;49.784;30.150;2024-01-15T00:14:11;20.46;;;12.12;;
61473;SDS011;53694;49.784;30.150;2024-01-15T00:15:13;17.96;;;9.80;;
61473;SDS011;53694;49.784;30.150;2024-01-15T00:16:15;16.89;;;9.07;;
61473;SDS011;53694;49.784;30.150;2024-01-15T00:17:17;15.16;;;8.23;;
61473;SDS011;53694;49.784;30.150;2024-01-15T00:18:18;15.11;;;8.01;;
61473;SDS011;53694;49.784;30.150;2024-01-15T00:19:24;12.76;;;7.89;;
61473;SDS011;53694;49.784;30.150;2024-01-15T00:20:25;17.36;;;7.72;;
61473;SDS011;53694;49.784;30.150;2024-01-15T00:21:26;14.36;;;7.34;;
61473;SDS011;53694;49.784;30.150;2024-01-15T00:22:28;13.47;;;8.06;;
61473;SDS011;53694;49.784;30.150;2024-01-15T00:23:29;17.14;;;9.37;;
61473;SDS011;53694;49.784;30.150;2024-01-15T00:24:31;15.94;;;8.83;;
61473;SDS011;53694;49.784;30.150;2024-01-15T00:25:34;18.74;;;9.68;;
61473;SDS011;53694;49.784;30.150;2024-01-15T00:26:36;20.25;;;10.19;;
61473;SDS011;53694;49.784;30.150;2024-01-15T00:27:38;20.06;;;10.44;;
61473;SDS011;53694;49.784;30.150;2024-01-15T00:28:39;19.55;;;10.72;;
61473;SDS011;53694;49.784;30.150;2024-01-15T00:29:41;21.93;;;10.39;;
61473;SDS011;53694;49.784;30.150;2024-01-15T00:30:42;28.75;;;10.95;;
61473;SDS011;53694;49.784;30.150;2024-01-15T00:31:44;18.85;;;11.05;;
61473;SDS011;53694;49.784;30.150;2024-01-15T00:32:46;19.79;;;10.99;;
61473;SDS011;53694;49.784;30.150;2024-01-15T00:33:47;21.76;;;11.68;;
61473;SDS011;53694;49.784;30.150;2024-01-15T00:34:49;22.11;;;11.34;;
61473;SDS011;53694;49.784;30.150;2024-01-15T00:35:50;21.21;;;10.76;;
61473;SDS011;53694;49.784;30.150;2024-01-15T00:36:52;17.30;;;8.99;;
61473;SDS011;53694;49.784;30.150;2024-01-15T00:37:54;16.36;;;8.93;;
61473;SDS011;53694;49.784;30.150;2024-01-15T00:38:55;15.24;;;7.96;;
61473;SDS011;53694;49.784;30.150;2024-01-15T00:39:57;13.81;;;7.63;;
61473;SDS011;53694;49.784;30.150;2024-01-15T00:40:58;16.53;;;7.80;;
61473;SDS011;53694;49.784;30.150;2024-01-15T00:42:00;13.94;;;7.54;;
61473;SDS011;53694;49.784;30.150;2024-01-15T00:43:01;16.15;;;8.29;;
61473;SDS011;53694;49.784;30.150;2024-01-15T00:44:03;15.31;;;8.21;;
61473;SDS011;53694;49.784;30.150;2024-01-15T00:45:05;17.16;;;9.73;;
61473;SDS011;53694;49.784;30.150;2024-01-15T00:46:07;15.29;;;9.20;;
61473;SDS011;53694;49.784;30.150;2024-01-15T00:47:09;16.94;;;9.44;;
61473;SDS011;53694;49.784;30.150;2024-01-15T00:48:10;18.51;;;10.61;;
61473;SDS011;53694;49.784;30.150;2024-01-15T00:49:12;18.73;;;10.12;;
61473;SDS011;53694;49.784;30.150;2024-01-15T00:50:14;20.79;;;10.68;;
61473;SDS011;53694;49.784;30.150;2024-01-15T00:51:16;20.65;;;10.95;;
61473;SDS011;53694;49.784;30.150;2024-01-15T00:52:18;19.91;;;10.59;;
61473;SDS011;53694;49.784;30.150;2024-01-15T00:53:19;20.97;;;11.66;;
61473;SDS011;53694;49.784;30.150;2024-01-15T00:54:21;19.79;;;10.93;;
61473;SDS011;53694;49.784;30.150;2024-01-15T00:55:24;23.02;;;11.84;;
61473;SDS011;53694;49.784;30.150;2024-01-15T00:56:26;18.01;;;10.72;;
61473;SDS011;53694;49.784;30.150;2024-01-15T00:57:27;19.96;;;9.68;;
61473;SDS011;53694;49.784;30.150;2024-01-15T00:58:29;17.92;;;9.03;;
61473;SDS011;53694;49.784;30.150;2024-01-15T00:59:30;19.68;;;9.09;;
61473;SDS011;53694;49.784;30.150;2024-01-15T01:00:32;17.74;;;8.73;;
61473;SDS011;53694;49.784;30.150;2024-01-15T01:01:33;18.51;;;8.66;;
61473;SDS011;53694;49.784;30.150;2024-01-15T01:02:35;14.79;;;7.71;;
61473;SDS011;53694;49.784;30.150;2024-01-15T01:03:37;17.52;;;7.77;;
61473;SDS011;53694;49.784;30.150;2024-01-15T01:04:38;15.23;;;7.93;;
61473;SDS011;53694;49.784;30.150;2024-01-15T01:05:40;18.39;;;9.15;;
61473;SDS011;53694;49.784;30.150;2024-01-15T01:06:41;17.18;;;9.36;;
61473;SDS011;53694;49.784;30.150;2024-01-15T01:07:43;19.44;;;9.59;;
61473;SDS011;53694;49.784;30.150;2024-01-15T01:08:44;18.60;;;9.92;;
61473;SDS011;53694;49.784;30.150;2024-01-15T01:09:46;19.37;;;10.41;;
61473;SDS011;53694;49.784;30.150;2024-01-15T01:10:47;22.46;;;11.69;;
61473;SDS011;53694;49.784;30.150;2024-01-15T01:11:49;19.25;;;10.48;;
61473;SDS011;53694;49.784;30.150;2024-01-15T01:12:51;20.57;;;10.81;;
61473;SDS011;53694;49.784;30.150;2024-01-15T01:13:52;22.64;;;11.84;;
61473;SDS011;53694;49.784;30.150;2024-01-15T01:14:54;21.36;;;12.31;;
61473;SDS011;53694;49.784;30.150;2024-01-15T01:15:55;19.10;;;11.41;;
61473;SDS011;53694;49.784;30.150;2024-01-15T01:16:57;20.71;;;11.56;;
61473;SDS011;53694;49.784;30.150;2024-01-15T01:17:58;19.48;;;11.45;;
61473;SDS011;53694;49.784;30.150;2024-01-15T01:19:00;19.89;;;10.46;;
61473;SDS011;53694;49.784;30.150;2024-01-15T01:20:01;14.71;;;8.26;;
61473;SDS011;53694;49.784;30.150;2024-01-15T01:21:03;15.53;;;8.13;;
61473;SDS011;53694;49.784;30.150;2024-01-15T01:22:05;18.36;;;8.21;;
61473;SDS011;53694;49.784;30.150;2024-01-15T01:23:07;14.00;;;7.73;;
61473;SDS011;53694;49.784;30.150;2024-01-15T01:24:08;12.67;;;7.36;;
61473;SDS011;53694;49.784;30.150;2024-01-15T01:25:10;15.51;;;8.10;;
61473;SDS011;53694;49.784;30.150;2024-01-15T01:26:15;13.53;;;7.60;;
61473;SDS011;53694;49.784;30.150;2024-01-15T01:27:19;19.31;;;8.17;;
61473;SDS011;53694;49.784;30.150;2024-01-15T01:28:20;16.05;;;8.40;;
61473;SDS011;53694;49.784;30.150;2024-01-15T01:29:22;14.81;;;8.75;;
61473;SDS011;53694;49.784;30.150;2024-01-15T01:30:23;20.09;;;11.36;;
61473;SDS011;53694;49.784;30.150;2024-01-15T01:31:25;17.91;;;10.34;;
61473;SDS011;53694;49.784;30.150;2024-01-15T01:32:26;19.81;;;11.56;;
61473;SDS011;53694;49.784;30.150;2024-01-15T01:33:28;20.42;;;10.40;;
61473;SDS011;53694;49.784;30.150;2024-01-15T01:34:29;18.90;;;10.39;;
61473;SDS011;53694;49.784;30.150;2024-01-15T01:35:33;17.04;;;10.06;;
61473;SDS011;53694;49.784;30.150;2024-01-15T01:36:34;20.11;;;11.39;;
61473;SDS011;53694;49.784;30.150;2024-01-15T01:37:36;18.79;;;10.02;;
61473;SDS011;53694;49.784;30.150;2024-01-15T01:38:38;18.79;;;10.58;;
61473;SDS011;53694;49.784;30.150;2024-01-15T01:39:41;16.36;;;9.19;;
61473;SDS011;53694;49.784;30.150;2024-01-15T01:40:43;18.42;;;8.28;;
61473;SDS011;53694;49.784;30.150;2024-01-15T01:41:45;15.87;;;8.04;;
61473;SDS011;53694;49.784;30.150;2024-01-15T01:42:46;12.41;;;7.29;;
61473;SDS011;53694;49.784;30.150;2024-01-15T01:43:48;14.23;;;7.55;;
61473;SDS011;53694;49.784;30.150;2024-01-15T01:44:50;14.36;;;7.31;;
61473;SDS011;53694;49.784;30.150;2024-01-15T01:45:51;14.56;;;6.91;;
61473;SDS011;53694;49.784;30.150;2024-01-15T01:46:53;14.52;;;7.69;;
61473;SDS011;53694;49.784;30.150;2024-01-15T01:47:55;14.49;;;7.91;;
61473;SDS011;53694;49.784;30.150;2024-01-15T01:48:57;13.51;;;8.10;;
61473;SDS011;53694;49.784;30.150;2024-01-15T01:49:59;19.62;;;9.46;;
61473;SDS011;53694;49.784;30.150;2024-01-15T01:51:02;17.64;;;9.44;;
61473;SDS011;53694;49.784;30.150;2024-01-15T01:52:04;19.62;;;10.06;;
61473;SDS011;53694;49.784;30.150;2024-01-15T01:53:07;20.08;;;10.64;;
61473;SDS011;53694;49.784;30.150;2024-01-15T01:54:09;22.49;;;10.20;;
61473;SDS011;53694;49.784;30.150;2024-01-15T01:55:11;19.65;;;11.11;;
61473;SDS011;53694;49.784;30.150;2024-01-15T01:56:14;18.30;;;9.78;;
61473;SDS011;53694;49.784;30.150;2024-01-15T01:57:16;18.31;;;10.03;;
61473;SDS011;53694;49.784;30.150;2024-01-15T01:58:19;18.65;;;10.41;;
61473;SDS011;53694;49.784;30.150;2024-01-15T01:59:21;16.17;;;9.56;;
61473;SDS011;53694;49.784;30.150;2024-01-15T02:00:24;20.75;;;10.33;;
61473;SDS011;53694;49.784;30.150;2024-01-15T02:01:26;20.07;;;9.27;;
61473;SDS011;53694;49.784;30.150;2024-01-15T02:02:27;15.82;;;7.86;;
61473;SDS011;53694;49.784;30.150;2024-01-15T02:03:30;15.52;;;7.71;;
61473;SDS011;53694;49.784;30.150;2024-01-15T02:04:32;12.37;;;7.17;;
61473;SDS011;53694;49.784;30.150;2024-01-15T02:05:34;14.56;;;7.00;;
61473;SDS011;53694;49.784;30.150;2024-01-15T02:06:37;13.32;;;7.14;;
61473;SDS011;53694;49.784;30.150;2024-01-15T02:07:39;13.96;;;7.31;;
61473;SDS011;53694;49.784;30.150;2024-01-15T02:08:43;12.31;;;7.13;;
61473;SDS011;53694;49.784;30.150;2024-01-15T02:09:44;17.93;;;8.57;;
61473;SDS011;53694;49.784;30.150;2024-01-15T02:10:46;22.64;;;8.74;;
61473;SDS011;53694;49.784;30.150;2024-01-15T02:11:47;16.70;;;8.71;;
61473;SDS011;53694;49.784;30.150;2024-01-15T02:12:49;18.96;;;8.84;;
61473;SDS011;53694;49.784;30.150;2024-01-15T02:13:51;16.97;;;8.86;;
61473;SDS011;53694;49.784;30.150;2024-01-15T02:14:53;15.99;;;8.76;;
61473;SDS011;53694;49.784;30.150;2024-01-15T02:15:54;17.71;;;9.11;;
61473;SDS011;53694;49.784;30.150;2024-01-15T02:16:56;17.95;;;9.18;;
61473;SDS011;53694;49.784;30.150;2024-01-15T02:18:02;19.28;;;9.31;;
61473;SDS011;53694;49.784;30.150;2024-01-15T02:19:05;23.58;;;10.17;;
61473;SDS011;53694;49.784;30.150;2024-01-15T02:20:08;18.64;;;9.52;;
61473;SDS011;53694;49.784;30.150;2024-01-15T02:21:10;20.82;;;9.57;;
61473;SDS011;53694;49.784;30.150;2024-01-15T02:22:12;19.69;;;9.11;;
61473;SDS011;53694;49.784;30.150;2024-01-15T02:23:14;26.84;;;12.45;;
61473;SDS011;53694;49.784;30.150;2024-01-15T02:24:16;21.57;;;8.82;;
61473;SDS011;53694;49.784;30.150;2024-01-15T02:25:20;15.28;;;7.51;;
61473;SDS011;53694;49.784;30.150;2024-01-15T02:26:22;12.27;;;6.82;;
61473;SDS011;53694;49.784;30.150;2024-01-15T02:27:24;17.03;;;7.48;;
61473;SDS011;53694;49.784;30.150;2024-01-15T02:28:26;19.75;;;7.56;;
61473;SDS011;53694;49.784;30.150;2024-01-15T02:29:28;13.84;;;6.59;;
61473;SDS011;53694;49.784;30.150;2024-01-15T02:30:29;15.99;;;7.22;;
61473;SDS011;53694;49.784;30.150;2024-01-15T02:31:32;17.79;;;8.09;;
61473;SDS011;53694;49.784;30.150;2024-01-15T02:32:33;20.86;;;8.93;;
61473;SDS011;53694;49.784;30.150;2024-01-15T02:33:35;21.93;;;8.99;;
61473;SDS011;53694;49.784;30.150;2024-01-15T02:34:36;40.55;;;24.28;;
61473;SDS011;53694;49.784;30.150;2024-01-15T02:35:38;21.81;;;14.86;;
61473;SDS011;53694;49.784;30.150;2024-01-15T02:36:40;20.87;;;9.70;;
61473;SDS011;53694;49.784;30.150;2024-01-15T02:37:41;16.79;;;9.58;;
61473;SDS011;53694;49.784;30.150;2024-01-15T02:38:43;23.89;;;11.09;;
61473;SDS011;53694;49.784;30.150;2024-01-15T02:39:44;20.02;;;9.73;;
61473;SDS011;53694;49.784;30.150;2024-01-15T02:40:46;20.89;;;10.13;;
61473;SDS011;53694;49.784;30.150;2024-01-15T02:41:48;19.84;;;9.69;;
61473;SDS011;53694;49.784;30.150;2024-01-15T02:42:49;17.84;;;9.68;;
61473;SDS011;53694;49.784;30.150;2024-01-15T02:43:51;18.94;;;9.74;;
61473;SDS011;53694;49.784;30.150;2024-01-15T02:44:53;22.54;;;12.41;;
61473;SDS011;53694;49.784;30.150;2024-01-15T02:45:54;20.47;;;9.13;;
61473;SDS011;53694;49.784;30.150;2024-01-15T02:46:56;16.43;;;8.49;;
61473;SDS011;53694;49.784;30.150;2024-01-15T02:47:57;15.64;;;8.11;;
61473;SDS011;53694;49.784;30.150;2024-01-15T02:48:59;18.51;;;7.96;;
61473;SDS011;53694;49.784;30.150;2024-01-15T02:50:00;12.76;;;6.55;;
61473;SDS011;53694;49.784;30.150;2024-01-15T02:51:02;13.71;;;6.73;;
61473;SDS011;53694;49.784;30.150;2024-01-15T02:52:04;13.79;;;7.03;;
61473;SDS011;53694;49.784;30.150;2024-01-15T02:53:06;16.57;;;8.53;;
61473;SDS011;53694;49.784;30.150;2024-01-15T02:54:08;14.14;;;8.09;;
61473;SDS011;53694;49.784;30.150;2024-01-15T02:55:09;16.91;;;8.74;;
61473;SDS011;53694;49.784;30.150;2024-01-15T02:56:13;15.84;;;9.00;;
61473;SDS011;53694;49.784;30.150;2024-01-15T02:57:14;19.71;;;9.21;;
61473;SDS011;53694;49.784;30.150;2024-01-15T02:58:16;15.60;;;9.38;;
61473;SDS011;53694;49.784;30.150;2024-01-15T02:59:17;28.50;;;11.83;;
61473;SDS011;53694;49.784;30.150;2024-01-15T03:00:20;18.35;;;9.21;;
61473;SDS011;53694;49.784;30.150;2024-01-15T03:01:22;19.24;;;9.79;;
61473;SDS011;53694;49.784;30.150;2024-01-15T03:02:24;18.19;;;9.13;;
61473;SDS011;53694;49.784;30.150;2024-01-15T03:03:25;18.66;;;9.76;;
61473;SDS011;53694;49.784;30.150;2024-01-15T03:04:27;18.47;;;10.21;;
61473;SDS011;53694;49.784;30.150;2024-01-15T03:05:28;19.71;;;9.63;;
61473;SDS011;53694;49.784;30.150;2024-01-15T03:06:30;21.17;;;10.57;;
61473;SDS011;53694;49.784;30.150;2024-01-15T03:07:31;19.01;;;9.84;;
61473;SDS011;53694;49.784;30.150;2024-01-15T03:08:33;17.89;;;8.86;;
61473;SDS011;53694;49.784;30.150;2024-01-15T03:09:35;14.18;;;7.66;;
61473;SDS011;53694;49.784;30.150;2024-01-15T03:10:37;15.95;;;7.51;;
61473;SDS011;53694;49.784;30.150;2024-01-15T03:11:39;18.61;;;8.11;;
61473;SDS011;53694;49.784;30.150;2024-01-15T03:12:41;12.92;;;7.00;;
61473;SDS011;53694;49.784;30.150;2024-01-15T03:13:42;12.72;;;6.60;;
61473;SDS011;53694;49.784;30.150;2024-01-15T03:14:44;15.63;;;7.42;;
61473;SDS011;53694;49.784;30.150;2024-01-15T03:15:45;16.19;;;7.86;;
61473;SDS011;53694;49.784;30.150;2024-01-15T03:16:47;15.29;;;8.37;;
61473;SDS011;53694;49.784;30.150;2024-01-15T03:17:48;16.20;;;8.20;;
61473;SDS011;53694;49.784;30.150;2024-01-15T03:18:50;17.64;;;8.66;;
61473;SDS011;53694;49.784;30.150;2024-01-15T03:19:51;19.95;;;9.51;;
61473;SDS011;53694;49.784;30.150;2024-01-15T03:20:53;16.09;;;8.57;;
61473;SDS011;53694;49.784;30.150;2024-01-15T03:21:54;17.94;;;9.12;;
61473;SDS011;53694;49.784;30.150;2024-01-15T03:22:56;23.25;;;10.47;;
61473;SDS011;53694;49.784;30.150;2024-01-15T03:23:57;16.84;;;9.69;;
61473;SDS011;53694;49.784;30.150;2024-01-15T03:24:59;16.75;;;9.16;;
61473;SDS011;53694;49.784;30.150;2024-01-15T03:26:00;17.66;;;10.27;;
61473;SDS011;53694;49.784;30.150;2024-01-15T03:27:02;19.77;;;9.99;;
61473;SDS011;53694;49.784;30.150;2024-01-15T03:28:04;18.33;;;10.22;;
61473;SDS011;53694;49.784;30.150;2024-01-15T03:29:06;28.27;;;13.28;;
61473;SDS011;53694;49.784;30.150;2024-01-15T03:30:09;19.69;;;10.45;;
61473;SDS011;53694;49.784;30.150;2024-01-15T03:31:11;19.01;;;9.75;;
61473;SDS011;53694;49.784;30.150;2024-01-15T03:32:12;19.00;;;9.85;;
61473;SDS011;53694;49.784;30.150;2024-01-15T03:33:14;16.74;;;9.24;;
61473;SDS011;53694;49.784;30.150;2024-01-15T03:34:16;14.31;;;7.69;;
61473;SDS011;53694;49.784;30.150;2024-01-15T03:35:18;14.70;;;7.14;;
61473;SDS011;53694;49.784;30.150;2024-01-15T03:36:20;12.67;;;6.91;;
61473;SDS011;53694;49.784;30.150;2024-01-15T03:37:21;12.25;;;6.75;;
61473;SDS011;53694;49.784;30.150;2024-01-15T03:38:23;13.23;;;6.76;;
61473;SDS011;53694;49.784;30.150;2024-01-15T03:39:25;14.75;;;7.38;;
61473;SDS011;53694;49.784;30.150;2024-01-15T03:40:27;13.16;;;7.91;;
61473;SDS011;53694;49.784;30.150;2024-01-15T03:41:28;13.96;;;8.10;;
61473;SDS011;53694;49.784;30.150;2024-01-15T03:42:30;15.89;;;8.13;;
61473;SDS011;53694;49.784;30.150;2024-01-15T03:43:31;15.61;;;8.49;;
61473;SDS011;53694;49.784;30.150;2024-01-15T03:44:33;13.16;;;7.86;;
61473;SDS011;53694;49.784;30.150;2024-01-15T03:45:34;16.90;;;8.95;;
61473;SDS011;53694;49.784;30.150;2024-01-15T03:46:36;15.92;;;8.03;;
61473;SDS011;53694;49.784;30.150;2024-01-15T03:47:38;17.86;;;8.91;;
61473;SDS011;53694;49.784;30.150;2024-01-15T03:48:39;16.85;;;9.24;;
61473;SDS011;53694;49.784;30.150;2024-01-15T03:49:40;13.34;;;7.25;;
61473;SDS011;53694;49.784;30.150;2024-01-15T03:50:42;15.21;;;7.77;;
61473;SDS011;53694;49.784;30.150;2024-01-15T03:51:44;14.47;;;7.56;;
61473;SDS011;53694;49.784;30.150;2024-01-15T03:52:46;14.72;;;8.63;;
61473;SDS011;53694;49.784;30.150;2024-01-15T03:53:47;18.61;;;8.38;;
61473;SDS011;53694;49.784;30.150;2024-01-15T03:54:49;17.44;;;7.46;;
61473;SDS011;53694;49.784;30.150;2024-01-15T03:55:50;13.67;;;6.71;;
61473;SDS011;53694;49.784;30.150;2024-01-15T03:56:52;13.54;;;7.08;;
61473;SDS011;53694;49.784;30.150;2024-01-15T03:57:53;15.76;;;7.50;;
61473;SDS011;53694;49.784;30.150;2024-01-15T03:58:55;15.69;;;7.79;;
61473;SDS011;53694;49.784;30.150;2024-01-15T03:59:58;15.83;;;7.91;;
61473;SDS011;53694;49.784;30.150;2024-01-15T04:01:00;15.30;;;7.52;;
61473;SDS011;53694;49.784;30.150;2024-01-15T04:02:01;13.81;;;6.99;;
61473;SDS011;53694;49.784;30.150;2024-01-15T04:03:03;14.65;;;6.19;;
61473;SDS011;53694;49.784;30.150;2024-01-15T04:04:04;12.59;;;6.34;;
61473;SDS011;53694;49.784;30.150;2024-01-15T04:05:06;11.41;;;5.30;;
61473;SDS011;53694;49.784;30.150;2024-01-15T04:06:08;9.89;;;5.27;;
61473;SDS011;53694;49.784;30.150;2024-01-15T04:07:10;9.63;;;5.16;;
61473;SDS011;53694;49.784;30.150;2024-01-15T04:08:11;10.31;;;5.20;;
61473;SDS011;53694;49.784;30.150;2024-01-15T04:09:13;12.38;;;5.71;;
61473;SDS011;53694;49.784;30.150;2024-01-15T04:10:15;11.81;;;5.86;;
61473;SDS011;53694;49.784;30.150;2024-01-15T04:11:17;11.49;;;6.19;;
61473;SDS011;53694;49.784;30.150;2024-01-15T04:12:19;15.01;;;6.45;;
61473;SDS011;53694;49.784;30.150;2024-01-15T04:13:20;13.53;;;6.14;;
61473;SDS011;53694;49.784;30.150;2024-01-15T04:14:22;14.01;;;6.77;;
61473;SDS011;53694;49.784;30.150;2024-01-15T04:15:23;12.41;;;5.97;;
61473;SDS011;53694;49.784;30.150;2024-01-15T04:16:25;13.03;;;6.77;;
61473;SDS011;53694;49.784;30.150;2024-01-15T04:17:27;11.66;;;6.76;;
61473;SDS011;53694;49.784;30.150;2024-01-15T04:18:28;14.85;;;6.64;;
61473;SDS011;53694;49.784;30.150;2024-01-15T04:19:30;14.03;;;6.83;;
61473;SDS011;53694;49.784;30.150;2024-01-15T04:20:32;14.26;;;7.24;;
61473;SDS011;53694;49.784;30.150;2024-01-15T04:21:33;14.10;;;6.95;;
61473;SDS011;53694;49.784;30.150;2024-01-15T04:22:35;12.89;;;6.54;;
61473;SDS011;53694;49.784;30.150;2024-01-15T04:23:36;13.21;;;7.39;;
61473;SDS011;53694;49.784;30.150;2024-01-15T04:24:38;13.80;;;6.96;;
61473;SDS011;53694;49.784;30.150;2024-01-15T04:25:40;15.71;;;7.11;;
61473;SDS011;53694;49.784;30.150;2024-01-15T04:26:41;13.54;;;6.61;;
61473;SDS011;53694;49.784;30.150;2024-01-15T04:27:43;14.00;;;7.88;;
61473;SDS011;53694;49.784;30.150;2024-01-15T04:28:44;12.64;;;6.71;;
61473;SDS011;53694;49.784;30.150;2024-01-15T04:29:46;15.30;;;7.34;;
61473;SDS011;53694;49.784;30.150;2024-01-15T04:30:48;14.38;;;7.46;;
61473;SDS011;53694;49.784;30.150;2024-01-15T04:31:49;14.78;;;7.33;;
61473;SDS011;53694;49.784;30.150;2024-01-15T04:32:51;15.20;;;7.08;;
61473;SDS011;53694;49.784;30.150;2024-01-15T04:33:52;11.81;;;6.34;;
61473;SDS011;53694;49.784;30.150;2024-01-15T04:34:54;11.68;;;6.56;;
61473;SDS011;53694;49.784;30.150;2024-01-15T04:35:58;12.52;;;6.53;;
61473;SDS011;53694;49.784;30.150;2024-01-15T04:37:01;16.15;;;6.98;;
61473;SDS011;53694;49.784;30.150;2024-01-15T04:38:03;15.00;;;7.68;;
61473;SDS011;53694;49.784;30.150;2024-01-15T04:39:04;12.76;;;6.99;;
61473;SDS011;53694;49.784;30.150;2024-01-15T04:40:06;14.20;;;7.05;;
61473;SDS011;53694;49.784;30.150;2024-01-15T04:41:15;14.22;;;7.03;;
61473;SDS011;53694;49.784;30.150;2024-01-15T04:42:17;12.87;;;6.80;;
61473;SDS011;53694;49.784;30.150;2024-01-15T04:43:19;12.31;;;6.44;;
61473;SDS011;53694;49.784;30.150;2024-01-15T04:44:20;13.44;;;7.38;;
61473;SDS011;53694;49.784;30.150;2024-01-15T04:45:22;14.09;;;7.38;;
61473;SDS011;53694;49.784;30.150;2024-01-15T04:46:23;12.13;;;6.48;;
61473;SDS011;53694;49.784;30.150;2024-01-15T04:47:25;12.49;;;6.49;;
61473;SDS011;53694;49.784;30.150;2024-01-15T04:48:26;11.91;;;6.70;;
61473;SDS011;53694;49.784;30.150;2024-01-15T04:49:28;11.75;;;6.33;;
61473;SDS011;53694;49.784;30.150;2024-01-15T04:50:31;10.01;;;6.27;;
61473;SDS011;53694;49.784;30.150;2024-01-15T04:51:32;13.22;;;7.21;;
61473;SDS011;53694;49.784;30.150;2024-01-15T04:52:35;10.36;;;5.76;;
61473;SDS011;53694;49.784;30.150;2024-01-15T04:53:36;12.39;;;5.49;;
61473;SDS011;53694;49.784;30.150;2024-01-15T04:54:38;11.21;;;4.73;;
61473;SDS011;53694;49.784;30.150;2024-01-15T04:55:40;8.99;;;4.31;;
61473;SDS011;53694;49.784;30.150;2024-01-15T04:56:42;11.13;;;5.40;;
61473;SDS011;53694;49.784;30.150;2024-01-15T04:57:43;12.18;;;5.88;;
61473;SDS011;53694;49.784;30.150;2024-01-15T04:58:45;10.50;;;5.61;;
61473;SDS011;53694;49.784;30.150;2024-01-15T04:59:46;12.55;;;6.31;;
61473;SDS011;53694;49.784;30.150;2024-01-15T05:00:49;11.94;;;5.79;;
61473;SDS011;53694;49.784;30.150;2024-01-15T05:01:51;11.70;;;5.89;;
61473;SDS011;53694;49.784;30.150;2024-01-15T05:02:52;10.71;;;6.33;;
61473;SDS011;53694;49.784;30.150;2024-01-15T05:03:54;11.96;;;5.89;;
61473;SDS011;53694;49.784;30.150;2024-01-15T05:04:55;10.67;;;5.47;;
61473;SDS011;53694;49.784;30.150;2024-01-15T05:05:57;13.38;;;6.36;;
61473;SDS011;53694;49.784;30.150;2024-01-15T05:06:58;11.61;;;5.57;;
61473;SDS011;53694;49.784;30.150;2024-01-15T05:08:00;15.07;;;7.68;;
61473;SDS011;53694;49.784;30.150;2024-01-15T05:09:01;15.21;;;7.36;;
61473;SDS011;53694;49.784;30.150;2024-01-15T05:10:03;12.25;;;6.63;;
61473;SDS011;53694;49.784;30.150;2024-01-15T05:11:05;15.74;;;6.97;;
61473;SDS011;53694;49.784;30.150;2024-01-15T05:12:07;15.14;;;7.01;;
61473;SDS011;53694;49.784;30.150;2024-01-15T05:13:09;15.19;;;6.74;;
61473;SDS011;53694;49.784;30.150;2024-01-15T05:14:10;16.39;;;6.89;;
61473;SDS011;53694;49.784;30.150;2024-01-15T05:15:12;13.66;;;6.51;;
61473;SDS011;53694;49.784;30.150;2024-01-15T05:16:14;15.05;;;7.25;;
61473;SDS011;53694;49.784;30.150;2024-01-15T05:17:15;16.71;;;7.56;;
61473;SDS011;53694;49.784;30.150;2024-01-15T05:18:17;16.01;;;7.76;;
61473;SDS011;53694;49.784;30.150;2024-01-15T05:19:18;14.86;;;7.31;;
61473;SDS011;53694;49.784;30.150;2024-01-15T05:20:20;14.35;;;6.96;;
61473;SDS011;53694;49.784;30.150;2024-01-15T05:21:21;16.74;;;8.69;;
61473;SDS011;53694;49.784;30.150;2024-01-15T05:22:23;14.33;;;6.94;;
61473;SDS011;53694;49.784;30.150;2024-01-15T05:23:24;15.84;;;6.86;;
61473;SDS011;53694;49.784;30.150;2024-01-15T05:24:26;14.03;;;7.03;;
61473;SDS011;53694;49.784;30.150;2024-01-15T05:25:29;18.44;;;7.75;;
61473;SDS011;53694;49.784;30.150;2024-01-15T05:26:31;15.56;;;7.84;;
61473;SDS011;53694;49.784;30.150;2024-01-15T05:27:32;14.81;;;7.58;;
61473;SDS011;53694;49.784;30.150;2024-01-15T05:28:34;19.07;;;8.48;;
61473;SDS011;53694;49.784;30.150;2024-01-15T05:29:35;18.19;;;8.07;;
61473;SDS011;53694;49.784;30.150;2024-01-15T05:30:37;16.60;;;7.88;;
61473;SDS011;53694;49.784;30.150;2024-01-15T05:31:39;18.25;;;7.81;;
61473;SDS011;53694;49.784;30.150;2024-01-15T05:32:40;19.53;;;8.51;;
61473;SDS011;53694;49.784;30.150;2024-01-15T05:33:42;17.30;;;7.89;;
61473;SDS011;53694;49.784;30.150;2024-01-15T05:34:43;17.31;;;8.11;;
61473;SDS011;53694;49.784;30.150;2024-01-15T05:35:45;18.00;;;8.45;;
61473;SDS011;53694;49.784;30.150;2024-01-15T05:36:47;18.91;;;8.02;;
61473;SDS011;53694;49.784;30.150;2024-01-15T05:37:48;18.92;;;8.04;;
61473;SDS011;53694;49.784;30.150;2024-01-15T05:38:50;17.96;;;8.17;;
61473;SDS011;53694;49.784;30.150;2024-01-15T05:39:52;16.34;;;8.05;;
61473;SDS011;53694;49.784;30.150;2024-01-15T05:40:53;19.96;;;8.27;;
61473;SDS011;53694;49.784;30.150;2024-01-15T05:41:55;19.72;;;8.30;;
61473;SDS011;53694;49.784;30.150;2024-01-15T05:42:56;17.81;;;8.09;;
61473;SDS011;53694;49.784;30.150;2024-01-15T05:43:57;18.94;;;8.36;;
61473;SDS011;53694;49.784;30.150;2024-01-15T05:44:59;17.87;;;8.98;;
61473;SDS011;53694;49.784;30.150;2024-01-15T05:46:01;20.20;;;9.97;;
61473;SDS011;53694;49.784;30.150;2024-01-15T05:47:02;21.12;;;9.04;;
61473;SDS011;53694;49.784;30.150;2024-01-15T05:48:04;21.55;;;9.01;;
61473;SDS011;53694;49.784;30.150;2024-01-15T05:49:06;21.55;;;9.67;;
61473;SDS011;53694;49.784;30.150;2024-01-15T05:50:08;20.56;;;9.31;;
61473;SDS011;53694;49.784;30.150;2024-01-15T05:51:10;24.50;;;10.16;;
61473;SDS011;53694;49.784;30.150;2024-01-15T05:52:11;20.57;;;9.51;;
61473;SDS011;53694;49.784;30.150;2024-01-15T05:53:13;20.22;;;9.45;;
61473;SDS011;53694;49.784;30.150;2024-01-15T05:54:14;19.31;;;10.09;;
61473;SDS011;53694;49.784;30.150;2024-01-15T05:55:16;20.70;;;11.00;;
61473;SDS011;53694;49.784;30.150;2024-01-15T05:56:18;20.71;;;10.07;;
61473;SDS011;53694;49.784;30.150;2024-01-15T05:57:19;17.56;;;8.18;;
61473;SDS011;53694;49.784;30.150;2024-01-15T05:58:21;14.71;;;7.50;;
61473;SDS011;53694;49.784;30.150;2024-01-15T05:59:23;14.25;;;7.31;;
61473;SDS011;53694;49.784;30.150;2024-01-15T06:00:25;14.70;;;7.29;;